הכול
Coober Pedy Airport (Coober Pedy, South Australia) CPD מזג אוויר
|
Coober Pedy, South Australia (CPD / YCBP)
שמים בהירים
רוחות קלות |
|
13 °C |
CPD Terminal Area Forecast
| Date | Time (ACST) | Flight Rules | Wind Dir. | Speed | Type | Height AGL (ft) | Visibility | Remarks | ||||||
|---|---|---|---|---|---|---|---|---|---|---|---|---|---|---|
Recent CPD METAR history
| Date | Time (ACST) | Flight Rules | Wind Dir. | Speed | Type | Height AGL (ft) | Visibility | Temp (°C) | Temp (°F) | Dew Point (°C) | Dew Point (°F) | Rel. Humid. | Pressure | Density Altitude | Remarks |
|---|---|---|---|---|---|---|---|---|---|---|---|---|---|---|---|
| 06-ספט | 02:30 | VFR | 140° | 9 kt | 10000 meters | 13° | 55° | 5° | 41° | 58% | 1021 mb | 270 ft | |||
| 06-ספט | 01:30 | VFR | 140° | 10 kt | 10000 meters | 14° | 57° | 5° | 41° | 55% | 1021 mb | 390 ft | |||
| 06-ספט | 00:30 | VFR | 140° | 7 kt | 10000 meters | 15° | 59° | 4° | 39° | 48% | 1021 mb | 510 ft | |||
| 05-ספט | 23:30 | VFR | 170° | 8 kt | 10000 meters | 16° | 60° | 4° | 39° | 45% | 1021 mb | 630 ft | |||
| 05-ספט | 22:30 | VFR | 190° | 7 kt | 10000 meters | 15° | 59° | 3° | 37° | 44% | 1022 mb | 480 ft | |||
| 05-ספט | 21:30 | VFR | 200° | 5 kt | 10000 meters | 15° | 59° | 2° | 35° | 41% | 1022 mb | 480 ft | |||
| 05-ספט | 20:30 | VFR | 220° | 7 kt | 10000 meters | 17° | 62° | 3° | 37° | 39% | 1021 mb | 750 ft | |||
| 05-ספט | 19:30 | VFR | 210° | 6 kt | 10000 meters | 19° | 66° | 3° | 37° | 34% | 1020 mb | 1,019 ft | |||
| 05-ספט | 18:30 | VFR | 210° | 10 kt | 10000 meters | 21° | 69° | 3° | 37° | 30% | 1019 mb | 1,289 ft | |||
| 05-ספט | 17:30 | VFR | 240° | 12 kt | 10000 meters | 23° | 73° | 4° | 39° | 29% | 1018 mb | 1,558 ft | |||
| 05-ספט | 16:30 | VFR | 230° | 12 kt | 10000 meters | 24° | 75° | 5° | 41° | 29% | 1018 mb | 1,678 ft | |||
| 05-ספט | 15:30 | VFR | 250° | 11 kt | 10000 meters | 24° | 75° | 5° | 41° | 29% | 1018 mb | 1,678 ft | |||
| 05-ספט | 14:30 | VFR | 230° | 12 kt | 10000 meters | 24° | 75° | 6° | 42° | 31% | 1018 mb | 1,678 ft | |||
| 05-ספט | 13:30 | VFR | 220° | 13 kt | 10000 meters | 22° | 71° | 6° | 42° | 35% | 1019 mb | 1,409 ft | |||
| 05-ספט | 12:30 | VFR | 220° | 16 kt | 10000 meters | 22° | 71° | 6° | 42° | 35% | 1019 mb | 1,409 ft | |||
| 05-ספט | 11:35 | VFR | 220° | 15 kt | 10000 meters | 20° | 68° | 7° | 44° | 43% | 1020 mb | 1,139 ft | Wind gusting to 25 KT | ||
| 05-ספט | 10:30 | VFR | 210° | 16 kt | 10000 meters | 19° | 66° | 7° | 44° | 46% | 1020 mb | 1,019 ft | |||
| 05-ספט | 09:30 | VFR | 210° | 17 kt | 10000 meters | 18° | 64° | 7° | 44° | 49% | 1020 mb | 899 ft | |||
| 05-ספט | 08:30 | VFR | 200° | 16 kt | 10000 meters | 17° | 62° | 7° | 44° | 52% | 1020 mb | 779 ft | |||
| 05-ספט | 07:30 | VFR | 200° | 9 kt | 10000 meters | 16° | 60° | 8° | 46° | 59% | 1019 mb | 689 ft | |||
| 05-ספט | 06:30 | VFR | 200° | 7 kt | 10000 meters | 16° | 60° | 7° | 44° | 55% | 1018 mb | 718 ft | |||
| 05-ספט | 05:30 | VFR | 190° | 15 kt | 10000 meters | 18° | 64° | 7° | 44° | 49% | 1017 mb | 988 ft | |||
| 05-ספט | 04:30 | VFR | 180° | 13 kt | Few Overcast |
7,700 11,500 |
10000 meters | 18° | 64° | 10° | 50° | 59% | 1016 mb | 1,018 ft | |
| 05-ספט | 03:30 | VFR | 230° | 16 kt | 10000 meters | 22° | 71° | 11° | 51° | 50% | 1014 mb | 1,557 ft |
כניסה לאתר
| אין תמיכה בדפדפן שלך. שדרג את הדפדפן שלך |
